createdAt,value
2022-10-08T00:01:56.729Z,5.93
2022-10-08T00:04:58.505Z,4.40
2022-10-08T00:08:00.234Z,5.38
2022-10-08T00:11:07.998Z,6.10
2022-10-08T00:14:09.877Z,5.60
2022-10-08T00:17:11.571Z,6.45
2022-10-08T00:20:13.653Z,6.95
2022-10-08T00:23:16.904Z,6.72
2022-10-08T00:26:23.696Z,6.20
2022-10-08T00:29:25.461Z,6.97
2022-10-08T00:32:27.183Z,6.80
2022-10-08T00:35:28.942Z,5.80
2022-10-08T00:38:30.690Z,6.68
2022-10-08T00:41:36.194Z,5.38
2022-10-08T00:44:47.481Z,7.70
2022-10-08T00:47:49.491Z,7.30
2022-10-08T00:50:51.815Z,6.40
2022-10-08T00:53:54.265Z,5.38
2022-10-08T00:56:56.101Z,7.55
2022-10-08T00:59:57.961Z,6.53
2022-10-08T01:03:00.930Z,7.93
2022-10-08T01:06:23.955Z,7.32
2022-10-08T01:09:47.252Z,14.10
2022-10-08T01:13:00.231Z,6.68
2022-10-08T01:16:14.614Z,7.55
2022-10-08T01:19:54.820Z,6.13
2022-10-08T01:23:21.307Z,10.10
2022-10-08T01:26:54.025Z,7.17
2022-10-08T01:29:57.889Z,8.27
2022-10-08T01:33:29.099Z,6.85
2022-10-08T01:36:52.186Z,12.60
2022-10-08T01:39:56.835Z,9.00
2022-10-08T01:43:01.298Z,8.32
2022-10-08T01:46:11.449Z,7.13
2022-10-08T01:49:18.517Z,6.88
2022-10-08T01:52:31.742Z,7.60
2022-10-08T01:55:40.757Z,6.68
2022-10-08T01:58:54.337Z,5.53
2022-10-08T02:02:09.671Z,8.63
2022-10-08T02:05:12.041Z,7.97
2022-10-08T02:08:14.433Z,7.45
2022-10-08T02:11:16.419Z,7.35
2022-10-08T02:14:18.624Z,7.13
2022-10-08T02:17:51.828Z,7.35
2022-10-08T02:21:09.114Z,14.27
2022-10-08T02:24:18.510Z,5.88
2022-10-08T02:27:30.436Z,5.50
2022-10-08T02:30:39.001Z,5.35
2022-10-08T02:33:54.408Z,5.38
2022-10-08T02:37:19.402Z,5.40
2022-10-08T02:40:22.782Z,4.97
2022-10-08T02:43:30.334Z,6.80
2022-10-08T02:46:38.015Z,7.68
2022-10-08T02:49:58.836Z,4.95
2022-10-08T02:53:01.552Z,6.20
2022-10-08T02:56:11.199Z,6.07
2022-10-08T02:59:15.022Z,5.30
2022-10-08T03:02:27.722Z,3.72
2022-10-08T03:05:30.057Z,4.30
2022-10-08T03:08:34.491Z,4.25
2022-10-08T03:11:36.550Z,5.53
2022-10-08T03:14:41.581Z,5.03
2022-10-08T03:17:45.962Z,3.92
2022-10-08T03:20:51.583Z,4.93
2022-10-08T03:23:53.415Z,4.90
2022-10-08T03:26:55.186Z,4.13
2022-10-08T03:30:00.365Z,4.10
2022-10-08T03:33:02.172Z,6.05
2022-10-08T03:36:04.404Z,5.13
2022-10-08T03:39:06.209Z,5.93
2022-10-08T03:42:07.917Z,5.72
2022-10-08T03:45:09.835Z,4.85
2022-10-08T03:48:11.593Z,7.28
2022-10-08T03:51:14.253Z,4.75
2022-10-08T03:54:17.575Z,6.25
2022-10-08T03:57:19.242Z,3.92
2022-10-08T04:00:21.039Z,5.03
2022-10-08T04:03:22.692Z,6.50
2022-10-08T04:06:24.510Z,5.25
2022-10-08T04:09:26.200Z,5.82
2022-10-08T04:12:28.969Z,5.90
2022-10-08T04:15:31.003Z,5.63
2022-10-08T04:18:33.307Z,7.22
2022-10-08T04:21:34.989Z,10.27
2022-10-08T04:24:36.868Z,5.70
2022-10-08T04:27:38.571Z,5.97
2022-10-08T04:30:40.758Z,5.32
2022-10-08T04:33:43.769Z,5.38
2022-10-08T04:36:45.480Z,7.38
2022-10-08T04:39:47.149Z,6.35
2022-10-08T04:42:52.147Z,6.50
2022-10-08T04:45:53.857Z,11.65
2022-10-08T04:48:56.900Z,4.95
2022-10-08T04:51:58.591Z,6.18
2022-10-08T04:55:00.330Z,7.65
2022-10-08T04:58:02.182Z,5.68
2022-10-08T05:01:06.065Z,7.63
2022-10-08T05:04:07.756Z,5.30
2022-10-08T05:07:09.481Z,5.75
2022-10-08T05:10:12.012Z,6.65
2022-10-08T05:13:13.740Z,7.45
2022-10-08T05:16:17.299Z,6.82
2022-10-08T05:19:19.169Z,10.02
2022-10-08T05:22:20.880Z,6.40
2022-10-08T05:25:22.637Z,8.10
2022-10-08T05:28:25.034Z,7.07
2022-10-08T05:31:29.386Z,8.85
2022-10-08T05:34:31.139Z,4.60
2022-10-08T05:37:33.320Z,5.20
2022-10-08T05:40:35.088Z,11.38
2022-10-08T05:43:36.808Z,6.88
2022-10-08T05:46:39.894Z,5.78
2022-10-08T05:49:41.645Z,6.50
2022-10-08T05:52:43.369Z,5.30
2022-10-08T05:55:45.091Z,6.47
2022-10-08T05:58:48.343Z,7.30
2022-10-08T06:01:51.008Z,6.85
2022-10-08T06:04:52.732Z,5.95
2022-10-08T06:07:57.508Z,6.40
2022-10-08T06:10:59.675Z,4.30
2022-10-08T06:14:02.244Z,4.22
2022-10-08T06:17:03.911Z,5.13
2022-10-08T06:20:06.133Z,9.05
2022-10-08T06:23:07.828Z,3.47
2022-10-08T06:26:10.560Z,5.60
2022-10-08T06:29:17.130Z,4.53
2022-10-08T06:35:20.452Z,5.57
2022-10-08T06:38:23.157Z,8.38
2022-10-08T06:41:26.446Z,7.05
2022-10-08T06:44:28.141Z,8.05
2022-10-08T06:47:29.897Z,7.30
2022-10-08T06:50:32.824Z,9.55
2022-10-08T06:53:35.096Z,4.70
2022-10-08T06:56:38.302Z,11.68
2022-10-08T06:59:40.042Z,8.68
2022-10-08T07:02:41.738Z,8.05
2022-10-08T07:05:44.731Z,11.18
2022-10-08T07:08:47.381Z,9.52
2022-10-08T07:11:49.126Z,11.93
2022-10-08T07:14:50.869Z,14.50
2022-10-08T07:17:52.563Z,13.52
2022-10-08T07:20:56.165Z,9.70
2022-10-08T07:24:00.523Z,0.17
2022-10-08T07:27:02.221Z,12.82
2022-10-08T07:30:04.189Z,11.45
2022-10-08T07:33:06.425Z,10.77
2022-10-08T07:36:14.276Z,2.92
2022-10-08T07:39:21.387Z,10.88
2022-10-08T07:42:23.291Z,10.63
2022-10-08T07:45:25.093Z,10.43
2022-10-08T07:48:33.666Z,14.63
2022-10-08T07:51:36.109Z,8.98
2022-10-08T07:54:38.170Z,7.75
2022-10-08T07:57:39.916Z,11.63
2022-10-08T08:00:41.733Z,14.02
2022-10-08T08:03:44.233Z,9.10
2022-10-08T08:06:48.396Z,8.35
2022-10-08T08:09:50.313Z,9.50
2022-10-08T08:12:52.108Z,13.95
2022-10-08T08:15:58.157Z,12.88
2022-10-08T08:19:01.560Z,10.57
2022-10-08T08:22:03.369Z,13.90
2022-10-08T08:25:08.893Z,12.77
2022-10-08T08:28:10.661Z,17.33
2022-10-08T08:31:18.272Z,19.10
2022-10-08T08:34:22.972Z,42.38
2022-10-08T08:37:24.690Z,27.40
2022-10-08T08:40:28.593Z,45.33
2022-10-08T08:43:30.323Z,25.52
2022-10-08T08:46:36.637Z,39.58
2022-10-08T08:49:42.844Z,35.50
2022-10-08T08:52:45.548Z,33.83
2022-10-08T08:55:53.914Z,24.80
2022-10-08T08:59:32.056Z,38.97
2022-10-08T09:02:46.766Z,27.90
2022-10-08T09:05:53.096Z,30.20
2022-10-08T09:09:12.141Z,31.80
2022-10-08T09:12:21.253Z,28.65
2022-10-08T09:15:37.801Z,24.70
2022-10-08T09:18:44.670Z,25.35
2022-10-08T09:24:51.749Z,30.63
2022-10-08T09:27:58.623Z,31.17
2022-10-08T09:31:27.928Z,27.35
2022-10-08T09:34:29.794Z,24.77
2022-10-08T09:37:32.131Z,0.68
2022-10-08T09:40:33.919Z,29.48
2022-10-08T09:43:36.480Z,23.02
2022-10-08T09:46:38.882Z,30.10
2022-10-08T09:49:41.249Z,30.90
2022-10-08T09:52:43.138Z,25.83
2022-10-08T09:55:53.772Z,30.67
2022-10-08T09:59:01.088Z,34.17
2022-10-08T10:02:07.743Z,30.13
2022-10-08T10:05:22.939Z,26.25
2022-10-08T10:09:04.184Z,26.02
2022-10-08T10:12:30.113Z,23.65
2022-10-08T10:15:58.562Z,24.00
2022-10-08T10:19:21.879Z,25.30
2022-10-08T10:22:29.621Z,28.23
2022-10-08T10:25:43.574Z,28.13
2022-10-08T10:28:53.801Z,25.20
2022-10-08T10:31:59.428Z,26.02
2022-10-08T10:35:19.044Z,26.27
2022-10-08T10:38:27.878Z,22.17
2022-10-08T10:41:52.354Z,26.48
2022-10-08T10:44:57.760Z,25.60
2022-10-08T10:48:05.125Z,28.70
2022-10-08T10:51:28.936Z,20.92
2022-10-08T10:54:48.731Z,20.52
2022-10-08T10:58:17.378Z,25.30
2022-10-08T11:01:59.395Z,20.23
2022-10-08T11:05:22.463Z,23.33
2022-10-08T11:08:45.023Z,22.60
2022-10-08T11:12:09.143Z,23.40
2022-10-08T11:15:28.908Z,24.55
2022-10-08T11:18:33.783Z,21.08
2022-10-08T11:21:38.169Z,23.00
2022-10-08T11:24:56.202Z,19.33
2022-10-08T11:28:38.808Z,19.77
2022-10-08T11:31:43.700Z,19.13
2022-10-08T11:35:14.437Z,19.33
2022-10-08T11:38:16.078Z,21.40
2022-10-08T11:41:47.012Z,18.63
2022-10-08T11:44:48.700Z,18.52
2022-10-08T11:47:53.101Z,21.52
2022-10-08T11:51:27.842Z,21.73
2022-10-08T11:54:38.564Z,19.45
2022-10-08T11:58:09.705Z,20.92
2022-10-08T12:01:07.635Z,18.30
2022-10-08T12:04:23.393Z,19.63
2022-10-08T12:07:27.410Z,22.23
2022-10-08T12:10:34.406Z,18.20
2022-10-08T12:13:36.168Z,16.88
2022-10-08T12:16:58.978Z,19.25
2022-10-08T12:20:17.856Z,21.23
2022-10-08T12:23:22.782Z,15.65
2022-10-08T12:26:24.637Z,20.95
2022-10-08T12:29:28.304Z,18.35
2022-10-08T12:32:32.952Z,18.17
2022-10-08T12:35:41.970Z,19.75
2022-10-08T12:38:56.675Z,15.27
2022-10-08T12:42:06.748Z,16.42
2022-10-08T12:45:34.390Z,17.25
2022-10-08T12:49:00.048Z,18.40
2022-10-08T12:52:07.424Z,18.85
2022-10-08T12:55:17.473Z,15.65
2022-10-08T12:58:23.547Z,14.25
2022-10-08T13:01:26.277Z,15.18
2022-10-08T13:04:33.856Z,18.75
2022-10-08T13:07:38.510Z,14.63
2022-10-08T13:10:42.967Z,12.80
2022-10-08T13:13:50.288Z,16.15
2022-10-08T13:16:52.070Z,17.20
2022-10-08T13:20:10.130Z,14.27
2022-10-08T13:23:42.096Z,19.10
2022-10-08T13:26:46.067Z,14.93
2022-10-08T13:29:48.195Z,16.30
2022-10-08T13:32:50.043Z,19.33
2022-10-08T13:36:00.728Z,13.55
2022-10-08T13:39:02.681Z,14.95
2022-10-08T13:42:08.534Z,17.00
2022-10-08T13:45:19.550Z,17.13
2022-10-08T13:48:21.383Z,11.95
2022-10-08T13:51:23.254Z,12.45
2022-10-08T13:54:31.628Z,12.73
2022-10-08T13:57:33.604Z,9.10
2022-10-08T14:00:39.902Z,10.15
2022-10-08T14:03:41.645Z,11.82
2022-10-08T14:06:46.535Z,11.43
2022-10-08T14:09:48.286Z,13.07
2022-10-08T14:12:50.222Z,9.35
2022-10-08T14:15:52.372Z,11.77
2022-10-08T14:18:56.892Z,6.70
2022-10-08T14:22:00.953Z,9.82
2022-10-08T14:25:02.955Z,7.07
2022-10-08T14:28:04.962Z,9.00
2022-10-08T14:31:07.140Z,8.52
2022-10-08T14:34:09.242Z,10.88
2022-10-08T14:37:10.979Z,6.65
2022-10-08T14:40:17.163Z,11.30
2022-10-08T14:46:20.658Z,7.55
2022-10-08T14:49:24.035Z,8.50
2022-10-08T14:52:25.834Z,11.60
2022-10-08T14:55:28.079Z,8.80
2022-10-08T14:58:30.524Z,6.75
2022-10-08T15:01:32.492Z,10.80
2022-10-08T15:04:34.321Z,9.43
2022-10-08T15:07:36.143Z,8.70
2022-10-08T15:10:38.281Z,8.57
2022-10-08T15:13:40.265Z,9.73
2022-10-08T15:16:42.945Z,7.75
2022-10-08T15:19:44.762Z,11.52
2022-10-08T15:22:46.786Z,7.13
2022-10-08T15:26:00.227Z,12.30
2022-10-08T15:29:02.051Z,9.98
2022-10-08T15:32:03.869Z,11.13
2022-10-08T15:35:05.921Z,8.57
2022-10-08T15:38:07.755Z,11.25
2022-10-08T15:41:09.549Z,7.18
2022-10-08T15:44:23.524Z,9.82
2022-10-08T15:47:25.195Z,8.32
2022-10-08T15:50:26.894Z,8.68
2022-10-08T15:53:36.567Z,7.60
2022-10-08T15:56:38.333Z,6.63
2022-10-08T15:59:40.388Z,9.73
2022-10-08T16:02:43.396Z,13.52
2022-10-08T16:05:45.183Z,7.88
2022-10-08T16:08:47.136Z,9.40
2022-10-08T16:11:49.844Z,9.85
2022-10-08T16:14:51.616Z,19.00
2022-10-08T16:17:53.341Z,19.98
2022-10-08T16:20:57.149Z,17.92
2022-10-08T16:23:59.759Z,16.85
2022-10-08T16:27:01.768Z,10.25
2022-10-08T16:30:04.220Z,9.90
2022-10-08T16:33:06.362Z,8.25
2022-10-08T16:36:10.536Z,10.93
2022-10-08T16:39:13.935Z,13.52
2022-10-08T16:42:15.791Z,11.77
2022-10-08T16:45:17.517Z,12.63
2022-10-08T16:48:19.251Z,8.50
2022-10-08T16:51:22.804Z,8.13
2022-10-08T16:54:24.696Z,7.50
2022-10-08T16:57:27.418Z,7.78
2022-10-08T17:00:29.678Z,6.70
2022-10-08T17:03:31.452Z,9.38
2022-10-08T17:06:33.920Z,8.05
2022-10-08T17:09:36.217Z,7.10
2022-10-08T17:12:37.949Z,21.13
2022-10-08T17:15:39.841Z,10.68
2022-10-08T17:18:44.815Z,10.52
2022-10-08T17:21:46.678Z,9.95
2022-10-08T17:24:48.405Z,14.90
2022-10-08T17:27:50.165Z,9.55
2022-10-08T17:30:52.141Z,9.50
2022-10-08T17:33:54.024Z,18.02
2022-10-08T17:36:55.804Z,12.50
2022-10-08T17:39:57.610Z,14.63
2022-10-08T17:42:59.438Z,13.43
2022-10-08T17:46:10.447Z,17.80
2022-10-08T17:49:16.556Z,18.38
2022-10-08T17:52:18.333Z,18.27
2022-10-08T17:55:20.042Z,11.63
2022-10-08T17:58:21.774Z,12.23
2022-10-08T18:01:29.562Z,17.42
2022-10-08T18:04:31.262Z,12.77
2022-10-08T18:07:32.983Z,13.82
2022-10-08T18:10:38.158Z,17.30
2022-10-08T18:13:39.947Z,23.75
2022-10-08T18:16:46.999Z,25.25
2022-10-08T18:19:49.802Z,20.15
2022-10-08T18:22:51.734Z,26.25
2022-10-08T18:25:54.133Z,18.77
2022-10-08T18:28:59.157Z,23.02
2022-10-08T18:32:01.022Z,15.52
2022-10-08T18:35:02.940Z,17.77
2022-10-08T18:38:04.722Z,18.42
2022-10-08T18:41:28.077Z,18.45
2022-10-08T18:44:30.515Z,18.83
2022-10-08T18:47:32.444Z,16.05
2022-10-08T18:50:34.172Z,17.48
2022-10-08T18:53:38.649Z,14.20
2022-10-08T18:56:41.415Z,15.30
2022-10-08T18:59:43.171Z,13.02
2022-10-08T19:02:47.304Z,15.40
2022-10-08T19:05:49.317Z,13.70
2022-10-08T19:08:51.854Z,11.70
2022-10-08T19:11:54.461Z,12.75
2022-10-08T19:14:56.175Z,15.88
2022-10-08T19:17:58.047Z,16.25
2022-10-08T19:21:07.173Z,17.58
2022-10-08T19:24:13.984Z,16.83
2022-10-08T19:27:15.853Z,22.00
2022-10-08T19:30:21.298Z,16.02
2022-10-08T19:33:25.796Z,16.20
2022-10-08T19:36:30.807Z,13.65
2022-10-08T19:39:34.118Z,15.20
2022-10-08T19:42:35.813Z,21.20
2022-10-08T19:45:37.642Z,16.75
2022-10-08T19:48:39.638Z,18.88
2022-10-08T19:51:41.556Z,16.67
2022-10-08T19:54:43.317Z,17.88
2022-10-08T19:57:45.293Z,17.27
2022-10-08T20:00:47.078Z,15.25
2022-10-08T20:03:48.872Z,13.75
2022-10-08T20:06:50.759Z,17.13
2022-10-08T20:09:52.499Z,20.90
2022-10-08T20:12:54.652Z,22.77
2022-10-08T20:15:56.773Z,15.38
2022-10-08T20:19:01.923Z,19.77
2022-10-08T20:22:03.658Z,18.33
2022-10-08T20:25:05.832Z,16.05
2022-10-08T20:28:07.662Z,18.02
2022-10-08T20:31:20.264Z,18.65
2022-10-08T20:34:26.910Z,22.25
2022-10-08T20:37:28.633Z,15.50
2022-10-08T20:40:30.362Z,18.20
2022-10-08T20:43:34.147Z,18.60
2022-10-08T20:46:37.102Z,15.25
2022-10-08T20:49:38.874Z,12.93
2022-10-08T20:52:40.640Z,10.90
2022-10-08T20:55:42.584Z,3.03
2022-10-08T20:58:44.820Z,5.88
2022-10-08T21:01:49.329Z,7.95
2022-10-08T21:04:51.082Z,6.13
2022-10-08T21:07:52.858Z,2.35
2022-10-08T21:10:54.631Z,6.63
2022-10-08T21:13:58.634Z,9.07
2022-10-08T21:17:00.378Z,7.80
2022-10-08T21:20:02.247Z,7.15
2022-10-08T21:23:04.768Z,8.65
2022-10-08T21:26:11.461Z,6.60
2022-10-08T21:29:14.364Z,9.70
2022-10-08T21:32:16.799Z,1.75
2022-10-08T21:35:18.718Z,4.50
2022-10-08T21:38:20.657Z,8.20
2022-10-08T21:41:24.012Z,6.78
2022-10-08T21:44:25.815Z,5.40
2022-10-08T21:47:28.836Z,3.35
2022-10-08T21:50:35.271Z,7.80
2022-10-08T21:53:40.601Z,2.85
2022-10-08T21:56:43.106Z,8.05
2022-10-08T21:59:45.305Z,10.02
2022-10-08T22:02:47.162Z,6.75
2022-10-08T22:05:53.908Z,4.32
2022-10-08T22:11:59.051Z,5.97
2022-10-08T22:15:00.874Z,7.72
2022-10-08T22:18:02.663Z,3.85
2022-10-08T22:21:10.902Z,3.35
2022-10-08T22:24:13.372Z,9.93
2022-10-08T22:27:15.019Z,7.30
2022-10-08T22:30:16.796Z,6.60
2022-10-08T22:33:19.447Z,3.90
2022-10-08T22:36:24.018Z,3.00
2022-10-08T22:39:25.747Z,4.55
2022-10-08T22:42:27.450Z,6.75
2022-10-08T22:45:31.742Z,3.58
2022-10-08T22:48:33.883Z,12.90
2022-10-08T22:51:36.735Z,2.50
2022-10-08T22:54:38.437Z,6.13
2022-10-08T22:57:40.684Z,8.38
2022-10-08T23:00:42.425Z,6.93
2022-10-08T23:03:44.522Z,7.95
2022-10-08T23:06:46.308Z,5.72
2022-10-08T23:09:48.179Z,7.88
2022-10-08T23:12:51.493Z,6.43
2022-10-08T23:16:04.291Z,8.55
2022-10-08T23:19:08.507Z,14.07
2022-10-08T23:22:10.193Z,4.00
2022-10-08T23:25:11.894Z,8.70
2022-10-08T23:28:13.693Z,2.03
2022-10-08T23:31:17.972Z,1.58
2022-10-08T23:34:20.058Z,3.97
2022-10-08T23:37:21.772Z,6.70
2022-10-08T23:40:23.492Z,11.60
2022-10-08T23:43:25.260Z,9.68
2022-10-08T23:46:30.992Z,1.70
2022-10-08T23:49:32.733Z,6.47
2022-10-08T23:52:34.391Z,7.45
2022-10-08T23:55:36.444Z,7.28
2022-10-08T23:58:38.223Z,3.45
